Time;durP1;ratioP1;P1;durP2;ratioP2;P2;SDS_P1;SDS_P2;PMS_P1;PMS_P2;Temp;Humidity;BMP_temperature;BMP_pressure;BME280_temperature;BME280_humidity;BME280_pressure;Samples;Min_cycle;Max_cycle;Signal;HPM_P1;HPM_P2
2021/01/15 00:02:01;;;;;;;;;;;;;;;;;;5049997;28;20383;-84
2021/01/15 00:04:27;;;;;;;;;;;;;;;;;;5042810;28;20422;-85
2021/01/15 00:06:53;;;;;;;;;;;;;;;;;;5037234;28;20840;-86
2021/01/15 00:09:20;;;;;;;;;;;;;;;;;;5044868;28;20379;-84
2021/01/15 00:11:46;;;;;;;;;;;;;;;;;;5040819;28;20395;-86
2021/01/15 00:14:12;;;;;;;;;;;;;;;;;;5050951;28;20526;-83
2021/01/15 00:16:39;;;;;;;;;;;;;;;;;;5044416;28;20392;-85
2021/01/15 00:19:05;;;;;;;;;;;;;;;;;;5043075;28;20392;-83
2021/01/15 00:21:32;;;;;;;;;;;;;;;;;;5050774;28;20391;-86
2021/01/15 00:23:58;;;;;;;;;;;;;;;;;;5040546;28;22343;-85
2021/01/15 00:26:24;;;;;;;;;;;;;;;;;;5050777;28;20427;-85
2021/01/15 00:28:51;;;;;;;;;;;;;;;;;;5053401;28;20383;-85
2021/01/15 00:31:17;;;;;;;;;;;;;;;;;;5042351;28;20844;-85
2021/01/15 00:33:44;;;;;;;;;;;;;;;;;;5044509;28;20408;-84
2021/01/15 00:36:10;;;;;;;;;;;;;;;;;;5059192;28;20370;-84
2021/01/15 00:38:36;;;;;;;;;;;;;;;;;;5058787;28;20372;-85
2021/01/15 00:41:03;;;;;;;;;;;;;;;;;;5055079;28;20384;-85
2021/01/15 00:43:29;;;;;;;;;;;;;;;;;;5047226;28;20400;-86
2021/01/15 00:45:55;;;;;;;;;;;;;;;;;;5054724;28;20455;-84
2021/01/15 00:48:22;;;;;;;;;;;;;;;;;;5038354;28;20390;-86
2021/01/15 00:50:48;;;;;;;;;;;;;;;;;;5053216;28;20423;-85
2021/01/15 00:53:14;;;;;;;;;;;;;;;;;;5049163;28;20412;-86
2021/01/15 00:55:41;;;;;;;;;;;;;;;;;;5054529;28;20844;-83
2021/01/15 00:58:07;;;;;;;;;;;;;;;;;;5046430;28;20384;-85
2021/01/15 01:00:34;;;;;;;;;;;;;;;;;;5052510;28;20403;-85
2021/01/15 01:03:00;;;;;;;;;;;;;;;;;;5036261;28;20403;-85
2021/01/15 01:05:26;;;;;;;;;;;;;;;;;;5041790;28;20387;-83
2021/01/15 01:07:54;;;;;;;;;;;;;;;;;;5038053;28;20401;-85
2021/01/15 01:10:21;;;;;;;;;;;;;;;;;;5049445;28;20387;-84
2021/01/15 01:12:47;;;;;;;;;;;;;;;;;;5060499;28;20387;-84
2021/01/15 01:15:14;;;;;;;;;;;;;;;;;;5055157;28;20413;-84
2021/01/15 01:17:40;;;;;;;;;;;;;;;;;;5045420;28;20791;-86
2021/01/15 01:20:06;;;;;;;;;;;;;;;;;;5055745;28;20385;-83
2021/01/15 01:22:33;;;;;;;;;;;;;;;;;;5060185;28;20386;-83
2021/01/15 01:24:59;;;;;;;;;;;;;;;;;;5047568;28;20483;-85
2021/01/15 01:27:26;;;;;;;;;;;;;;;;;;5046272;28;20376;-85
2021/01/15 01:29:52;;;;;;;;;;;;;;;;;;5048987;28;20395;-82
2021/01/15 01:32:18;;;;;;;;;;;;;;;;;;5064896;28;20364;-85
2021/01/15 01:34:45;;;;;;;;;;;;;;;;;;5082207;28;20416;-83
2021/01/15 01:37:11;;;;;;;;;;;;;;;;;;5080908;28;20380;-83
2021/01/15 01:39:37;;;;;;;;;;;;;;;;;;5054620;28;20783;-82
2021/01/15 01:42:04;;;;;;;;;;;;;;;;;;5054570;28;20384;-83
2021/01/15 01:44:30;;;;;;;;;;;;;;;;;;5056721;28;20415;-82
2021/01/15 01:46:57;;;;;;;;;;;;;;;;;;5053405;28;20387;-85
2021/01/15 01:49:23;;;;;;;;;;;;;;;;;;5038179;28;20384;-84
2021/01/15 01:51:49;;;;;;;;;;;;;;;;;;5043933;28;20383;-85
2021/01/15 01:54:16;;;;;;;;;;;;;;;;;;5041582;28;20477;-84
2021/01/15 01:56:42;;;;;;;;;;;;;;;;;;5044184;28;20387;-84
2021/01/15 01:59:08;;;;;;;;;;;;;;;;;;5081823;28;20365;-81
2021/01/15 02:01:35;;;;;;;;;;;;;;;;;;5081825;28;20380;-79
2021/01/15 02:04:01;;;;;;;;;;;;;;;;;;5069695;28;20409;-86
2021/01/15 02:06:28;;;;;;;;;;;;;;;;;;5041293;28;20394;-87
2021/01/15 02:08:54;;;;;;;;;;;;;;;;;;5057761;28;20401;-86
2021/01/15 02:11:20;;;;;;;;;;;;;;;;;;5043003;28;20389;-82
2021/01/15 02:13:47;;;;;;;;;;;;;;;;;;5057853;28;20418;-81
2021/01/15 02:16:13;;;;;;;;;;;;;;;;;;5062454;28;20384;-85
2021/01/15 02:18:40;;;;;;;;;;;;;;;;;;5058881;28;20396;-86
2021/01/15 02:21:06;;;;;;;;;;;;;;;;;;5050941;28;20387;-85
2021/01/15 02:23:32;;;;;;;;;;;;;;;;;;5043979;28;20404;-85
2021/01/15 02:25:59;;;;;;;;;;;;;;;;;;5020115;28;20390;-86
2021/01/15 02:28:25;;;;;;;;;;;;;;;;;;5023781;28;20409;-87
2021/01/15 02:30:51;;;;;;;;;;;;;;;;;;5040462;28;20392;-86
2021/01/15 02:33:18;;;;;;;;;;;;;;;;;;5040862;28;20821;-87
2021/01/15 02:35:44;;;;;;;;;;;;;;;;;;5040861;28;20844;-86
2021/01/15 02:38:11;;;;;;;;;;;;;;;;;;5051331;28;20441;-87
2021/01/15 02:40:37;;;;;;;;;;;;;;;;;;5046545;28;20383;-87
2021/01/15 02:43:03;;;;;;;;;;;;;;;;;;5041686;28;20783;-87
2021/01/15 02:45:30;;;;;;;;;;;;;;;;;;5055088;28;20391;-86
2021/01/15 02:47:56;;;;;;;;;;;;;;;;;;5050827;28;20388;-86
2021/01/15 02:50:22;;;;;;;;;;;;;;;;;;5059016;28;20446;-86
2021/01/15 02:52:49;;;;;;;;;;;;;;;;;;5039537;28;20486;-86
2021/01/15 02:55:15;;;;;;;;;;;;;;;;;;5040489;28;20879;-86
2021/01/15 02:57:42;;;;;;;;;;;;;;;;;;5044822;28;20388;-83
2021/01/15 03:00:08;;;;;;;;;;;;;;;;;;5046782;28;20775;-84
2021/01/15 03:02:35;;;;;;;;;;;;;;;;;;5047952;28;20432;-84
2021/01/15 03:05:01;;;;;;;;;;;;;;;;;;5040998;28;20749;-84
2021/01/15 03:07:27;;;;;;;;;;;;;;;;;;5046427;28;20438;-84
2021/01/15 03:09:54;;;;;;;;;;;;;;;;;;5079640;28;20389;-83
2021/01/15 03:12:20;;;;;;;;;;;;;;;;;;5080883;28;20379;-82
2021/01/15 03:14:46;;;;;;;;;;;;;;;;;;5073389;28;20408;-86
2021/01/15 03:17:13;;;;;;;;;;;;;;;;;;5050559;28;20414;-85
2021/01/15 03:19:39;;;;;;;;;;;;;;;;;;5050653;28;20375;-85
2021/01/15 03:22:05;;;;;;;;;;;;;;;;;;5058859;28;20392;-87
2021/01/15 03:24:32;;;;;;;;;;;;;;;;;;5057952;28;20533;-87
2021/01/15 03:26:58;;;;;;;;;;;;;;;;;;5044577;28;20391;-86
2021/01/15 03:29:25;;;;;;;;;;;;;;;;;;5042797;28;20395;-85
2021/01/15 03:31:51;;;;;;;;;;;;;;;;;;5049982;28;20867;-87
2021/01/15 03:34:20;;;;;;;;;;;;;;;;;;5099124;22;20417;-80
2021/01/15 03:36:46;;;;;;;;;;;;;;;;;;5069408;28;20389;-80
2021/01/15 03:39:12;;;;;;;;;;;;;;;;;;5068089;28;20845;-81
2021/01/15 03:41:39;;;;;;;;;;;;;;;;;;5064335;28;20381;-81
2021/01/15 03:44:05;;;;;;;;;;;;;;;;;;5068157;28;20401;-80
2021/01/15 03:46:32;;;;;;;;;;;;;;;;;;5065169;28;20389;-80
2021/01/15 03:48:58;;;;;;;;;;;;;;;;;;5075420;28;20744;-81
2021/01/15 03:51:24;;;;;;;;;;;;;;;;;;5072454;28;20389;-80
2021/01/15 03:53:51;;;;;;;;;;;;;;;;;;5066273;28;20408;-81
2021/01/15 03:56:17;;;;;;;;;;;;;;;;;;5064371;28;20422;-81
2021/01/15 03:58:44;;;;;;;;;;;;;;;;;;5082099;28;20421;-80
2021/01/15 04:01:10;;;;;;;;;;;;;;;;;;5079523;28;20473;-80
2021/01/15 04:03:36;;;;;;;;;;;;;;;;;;5070598;28;20403;-81
2021/01/15 04:06:03;;;;;;;;;;;;;;;;;;5080767;28;20392;-80
2021/01/15 04:08:29;;;;;;;;;;;;;;;;;;5077645;28;20408;-80
2021/01/15 04:10:55;;;;;;;;;;;;;;;;;;5080200;28;20384;-80
2021/01/15 04:13:22;;;;;;;;;;;;;;;;;;5073881;28;20437;-80
2021/01/15 04:15:48;;;;;;;;;;;;;;;;;;5071698;28;20382;-80
2021/01/15 04:18:14;;;;;;;;;;;;;;;;;;5062162;28;20381;-81
2021/01/15 04:20:41;;;;;;;;;;;;;;;;;;5072723;28;20382;-81
2021/01/15 04:23:07;;;;;;;;;;;;;;;;;;5069123;28;20400;-80
2021/01/15 04:25:33;;;;;;;;;;;;;;;;;;5072636;28;20830;-81
2021/01/15 04:28:00;;;;;;;;;;;;;;;;;;5080804;28;20404;-81
2021/01/15 04:30:26;;;;;;;;;;;;;;;;;;5070287;28;20374;-81
2021/01/15 04:32:53;;;;;;;;;;;;;;;;;;5081555;28;20386;-81
2021/01/15 04:35:19;;;;;;;;;;;;;;;;;;5064129;28;20401;-81
2021/01/15 04:37:47;;;;;;;;;;;;;;;;;;5044581;28;20387;-81
2021/01/15 04:40:13;;;;;;;;;;;;;;;;;;5059074;28;20472;-81
2021/01/15 04:42:41;;;;;;;;;;;;;;;;;;5074053;28;20832;-81
2021/01/15 04:45:07;;;;;;;;;;;;;;;;;;5063105;28;20774;-82
2021/01/15 04:47:33;;;;;;;;;;;;;;;;;;5058572;28;20384;-81
2021/01/15 04:50:00;;;;;;;;;;;;;;;;;;5059981;28;20378;-81
2021/01/15 04:52:28;;;;;;;;;;;;;;;;;;5060456;28;20836;-81
2021/01/15 04:54:55;;;;;;;;;;;;;;;;;;5065450;28;20398;-80
2021/01/15 04:57:21;;;;;;;;;;;;;;;;;;5064714;28;20384;-81
2021/01/15 04:59:47;;;;;;;;;;;;;;;;;;5065581;28;20386;-81
2021/01/15 05:02:14;;;;;;;;;;;;;;;;;;5064259;28;20787;-81
2021/01/15 05:04:40;;;;;;;;;;;;;;;;;;5063248;28;20429;-80
2021/01/15 05:07:07;;;;;;;;;;;;;;;;;;5065785;28;20411;-80
2021/01/15 05:09:33;;;;;;;;;;;;;;;;;;5054332;28;20385;-81
2021/01/15 05:11:59;;;;;;;;;;;;;;;;;;5074399;28;20439;-81
2021/01/15 05:14:26;;;;;;;;;;;;;;;;;;5058252;28;20411;-81
2021/01/15 05:16:52;;;;;;;;;;;;;;;;;;5057441;28;20415;-81
2021/01/15 05:19:19;;;;;;;;;;;;;;;;;;5059273;28;20430;-81
2021/01/15 05:21:50;;;;;;;;;;;;;;;;;;5058568;28;20841;-81
2021/01/15 05:24:16;;;;;;;;;;;;;;;;;;5065264;28;20401;-81
2021/01/15 05:26:43;;;;;;;;;;;;;;;;;;5061789;28;20385;-81
2021/01/15 05:29:09;;;;;;;;;;;;;;;;;;5050246;28;20385;-81
2021/01/15 05:31:36;;;;;;;;;;;;;;;;;;5063341;28;20393;-81
2021/01/15 05:34:02;;;;;;;;;;;;;;;;;;5059272;28;20408;-81
2021/01/15 05:36:28;;;;;;;;;;;;;;;;;;5058417;28;20913;-81
2021/01/15 05:38:55;;;;;;;;;;;;;;;;;;5061089;28;20381;-81
2021/01/15 05:41:21;;;;;;;;;;;;;;;;;;5057488;28;20844;-81
2021/01/15 05:43:48;;;;;;;;;;;;;;;;;;5071297;28;20411;-81
2021/01/15 05:46:16;;;;;;;;;;;;;;;;;;5059288;28;20380;-80
2021/01/15 05:48:43;;;;;;;;;;;;;;;;;;5061234;28;20386;-81
2021/01/15 05:51:09;;;;;;;;;;;;;;;;;;5059190;28;20396;-80
2021/01/15 05:53:35;;;;;;;;;;;;;;;;;;5062509;28;20446;-81
2021/01/15 05:56:03;;;;;;;;;;;;;;;;;;5059984;28;20403;-81
2021/01/15 05:58:30;;;;;;;;;;;;;;;;;;5052575;28;20374;-80
2021/01/15 06:00:56;;;;;;;;;;;;;;;;;;5061117;28;20400;-80
2021/01/15 06:03:22;;;;;;;;;;;;;;;;;;5055872;28;20818;-81
2021/01/15 06:05:49;;;;;;;;;;;;;;;;;;5065010;28;20464;-81
2021/01/15 06:08:15;;;;;;;;;;;;;;;;;;5061724;28;20411;-81
2021/01/15 06:10:42;;;;;;;;;;;;;;;;;;5073042;28;21082;-81
2021/01/15 06:13:08;;;;;;;;;;;;;;;;;;5073192;28;20408;-80
2021/01/15 06:15:34;;;;;;;;;;;;;;;;;;5069352;28;20398;-81
2021/01/15 06:18:01;;;;;;;;;;;;;;;;;;5080032;28;20382;-81
2021/01/15 06:20:27;;;;;;;;;;;;;;;;;;5067408;28;20376;-81
2021/01/15 06:22:54;;;;;;;;;;;;;;;;;;5071383;28;20396;-81
2021/01/15 06:25:20;;;;;;;;;;;;;;;;;;5071135;28;20821;-82
2021/01/15 06:27:47;;;;;;;;;;;;;;;;;;5065223;28;20392;-82
2021/01/15 06:30:13;;;;;;;;;;;;;;;;;;5076494;28;20394;-82
2021/01/15 06:32:40;;;;;;;;;;;;;;;;;;5069841;28;20477;-82
2021/01/15 06:35:06;;;;;;;;;;;;;;;;;;5069214;28;20412;-82
2021/01/15 06:37:32;;;;;;;;;;;;;;;;;;5063732;28;20440;-82
2021/01/15 06:39:59;;;;;;;;;;;;;;;;;;5074206;28;20745;-82
2021/01/15 06:42:25;;;;;;;;;;;;;;;;;;5068729;28;20380;-81
2021/01/15 06:44:51;;;;;;;;;;;;;;;;;;5083215;28;20401;-82
2021/01/15 06:47:18;;;;;;;;;;;;;;;;;;5079196;28;20386;-81
2021/01/15 06:49:44;;;;;;;;;;;;;;;;;;5073211;28;20384;-81
2021/01/15 06:52:10;;;;;;;;;;;;;;;;;;5064806;28;20385;-81
2021/01/15 06:54:37;;;;;;;;;;;;;;;;;;5062781;28;20408;-81
2021/01/15 06:57:04;;;;;;;;;;;;;;;;;;5069959;28;20376;-81
2021/01/15 06:59:30;;;;;;;;;;;;;;;;;;5074165;28;20388;-79
2021/01/15 07:01:56;;;;;;;;;;;;;;;;;;5077742;28;20384;-80
2021/01/15 07:04:23;;;;;;;;;;;;;;;;;;5061186;28;20880;-81
2021/01/15 07:06:49;;;;;;;;;;;;;;;;;;5081410;28;20386;-81
2021/01/15 07:09:15;;;;;;;;;;;;;;;;;;5073871;28;20434;-81
2021/01/15 07:11:42;;;;;;;;;;;;;;;;;;5062700;28;20376;-80
2021/01/15 07:14:08;;;;;;;;;;;;;;;;;;5067353;28;20400;-81
2021/01/15 07:16:35;;;;;;;;;;;;;;;;;;5079392;28;20378;-80
2021/01/15 07:19:01;;;;;;;;;;;;;;;;;;5070153;28;20377;-82
2021/01/15 07:21:27;;;;;;;;;;;;;;;;;;5063274;28;20434;-81
2021/01/15 07:23:54;;;;;;;;;;;;;;;;;;5064435;28;20408;-82
2021/01/15 07:26:20;;;;;;;;;;;;;;;;;;5064309;28;20384;-81
2021/01/15 07:28:47;;;;;;;;;;;;;;;;;;5079181;28;20862;-81
2021/01/15 07:31:22;;;;;;;;;;;;;;;;;;5054821;28;20393;-82
2021/01/15 07:33:48;;;;;;;;;;;;;;;;;;5063448;28;20407;-83
2021/01/15 07:36:15;;;;;;;;;;;;;;;;;;5064099;28;20377;-82
2021/01/15 07:38:41;;;;;;;;;;;;;;;;;;5062649;28;20811;-82
2021/01/15 07:41:08;;;;;;;;;;;;;;;;;;5059921;28;20391;-81
2021/01/15 07:43:34;;;;;;;;;;;;;;;;;;5077064;28;20397;-82
2021/01/15 07:46:00;;;;;;;;;;;;;;;;;;5067088;28;20767;-82
2021/01/15 07:48:27;;;;;;;;;;;;;;;;;;5075267;28;20381;-82
2021/01/15 07:50:53;;;;;;;;;;;;;;;;;;5063969;28;20885;-82
2021/01/15 07:53:20;;;;;;;;;;;;;;;;;;5059150;28;20407;-82
2021/01/15 07:55:46;;;;;;;;;;;;;;;;;;5059723;28;20932;-82
2021/01/15 07:58:12;;;;;;;;;;;;;;;;;;5055651;28;20387;-82
2021/01/15 08:00:39;;;;;;;;;;;;;;;;;;5051635;28;20384;-82
2021/01/15 08:03:05;;;;;;;;;;;;;;;;;;5079021;28;20413;-82
2021/01/15 08:05:32;;;;;;;;;;;;;;;;;;5079900;28;20389;-82
2021/01/15 08:07:58;;;;;;;;;;;;;;;;;;5060349;28;20402;-83
2021/01/15 08:10:25;;;;;;;;;;;;;;;;;;5063141;28;20440;-83
2021/01/15 08:12:51;;;;;;;;;;;;;;;;;;5064188;28;20380;-82
2021/01/15 08:15:18;;;;;;;;;;;;;;;;;;5059549;28;20404;-82
2021/01/15 08:17:44;;;;;;;;;;;;;;;;;;5061110;28;20388;-84
2021/01/15 08:20:11;;;;;;;;;;;;;;;;;;5065080;28;20395;-81
2021/01/15 08:22:38;;;;;;;;;;;;;;;;;;5070586;28;20396;-82
2021/01/15 08:25:04;;;;;;;;;;;;;;;;;;5061993;28;20396;-86
2021/01/15 08:27:32;;;;;;;;;;;;;;;;;;5068204;28;20378;-82
2021/01/15 08:29:59;;;;;;;;;;;;;;;;;;5061296;28;20448;-82
2021/01/15 08:32:25;;;;;;;;;;;;;;;;;;5073999;28;20389;-82
2021/01/15 08:34:52;;;;;;;;;;;;;;;;;;5067300;28;20426;-83
2021/01/15 08:37:20;;;;;;;;;;;;;;;;;;5040152;28;20374;-83
2021/01/15 08:39:46;;;;;;;;;;;;;;;;;;5053030;28;20391;-83
2021/01/15 08:47:41;;;;;;;;;;;;;;;;;;5012245;28;20924;-85
2021/01/15 08:50:08;;;;;;;;;;;;;;;;;;5019938;28;20389;-84
2021/01/15 08:52:34;;;;;;;;;;;;;;;;;;5002183;28;20892;-84
2021/01/15 08:55:01;;;;;;;;;;;;;;;;;;5017182;28;20496;-84
2021/01/15 08:57:28;;;;;;;;;;;;;;;;;;5017901;28;20394;-84
2021/01/15 08:59:54;;;;;;;;;;;;;;;;;;4998689;28;20404;-84
2021/01/15 09:02:20;;;;;;;;;;;;;;;;;;5014286;28;20394;-84
2021/01/15 09:04:47;;;;;;;;;;;;;;;;;;5019247;28;20448;-84
2021/01/15 09:07:13;;;;;;;;;;;;;;;;;;5001095;28;20388;-85
2021/01/15 09:15:06;;;;;;;;;;;;;;;;;;5007776;28;20450;-85
2021/01/15 09:17:33;;;;;;;;;;;;;;;;;;5051910;28;20796;-85
2021/01/15 09:31:12;;;;;;;;;;;;;;;;;;5002671;28;20550;-84
2021/01/15 09:36:22;;;;;;;;;;;;;;;;;;5018491;28;20386;-84
2021/01/15 09:44:19;;;;;;;;;;;;;;;;;;4999708;28;20419;-83
2021/01/15 09:46:46;;;;;;;;;;;;;;;;;;4992289;28;20397;-83
2021/01/15 09:49:12;;;;;;;;;;;;;;;;;;5013786;28;20384;-83
2021/01/15 09:51:40;;;;;;;;;;;;;;;;;;5023267;28;20389;-83
2021/01/15 09:54:06;;;;;;;;;;;;;;;;;;5025751;28;20423;-84
2021/01/15 09:56:40;;;;;;;;;;;;;;;;;;5030527;28;20386;-83
2021/01/15 09:59:07;;;;;;;;;;;;;;;;;;5037480;28;20389;-84
2021/01/15 10:01:33;;;;;;;;;;;;;;;;;;5061721;28;20381;-85
2021/01/15 10:03:59;;;;;;;;;;;;;;;;;;5060261;28;20400;-84
2021/01/15 10:06:27;;;;;;;;;;;;;;;;;;5073865;28;20382;-84
2021/01/15 10:08:54;;;;;;;;;;;;;;;;;;5061860;28;20752;-84
2021/01/15 10:11:20;;;;;;;;;;;;;;;;;;5062025;28;20384;-84
2021/01/15 10:13:46;;;;;;;;;;;;;;;;;;5061019;28;20423;-85
2021/01/15 10:16:13;;;;;;;;;;;;;;;;;;5062937;28;20411;-85
2021/01/15 10:18:39;;;;;;;;;;;;;;;;;;5064901;28;20388;-85
2021/01/15 10:21:05;;;;;;;;;;;;;;;;;;5066092;28;20385;-84
2021/01/15 10:23:32;;;;;;;;;;;;;;;;;;5066977;28;20401;-84
2021/01/15 10:25:58;;;;;;;;;;;;;;;;;;5064566;28;20388;-86
2021/01/15 10:28:25;;;;;;;;;;;;;;;;;;5061957;28;20385;-84
2021/01/15 10:30:51;;;;;;;;;;;;;;;;;;5062766;28;20395;-84
2021/01/15 10:33:18;;;;;;;;;;;;;;;;;;5067391;28;20946;-85
2021/01/15 10:35:44;;;;;;;;;;;;;;;;;;5063929;28;20412;-84
2021/01/15 10:38:11;;;;;;;;;;;;;;;;;;5063638;28;20385;-84
2021/01/15 10:40:38;;;;;;;;;;;;;;;;;;5064225;28;20394;-85
2021/01/15 10:43:05;;;;;;;;;;;;;;;;;;5077359;28;20415;-84
2021/01/15 10:45:32;;;;;;;;;;;;;;;;;;5075540;28;20392;-83
2021/01/15 10:47:59;;;;;;;;;;;;;;;;;;5063183;28;20369;-84
2021/01/15 10:50:25;;;;;;;;;;;;;;;;;;5062507;28;20455;-83
2021/01/15 10:52:52;;;;;;;;;;;;;;;;;;5079176;28;20437;-83
2021/01/15 10:55:19;;;;;;;;;;;;;;;;;;5068389;28;20389;-83
2021/01/15 10:57:45;;;;;;;;;;;;;;;;;;5061883;28;20377;-83
2021/01/15 11:00:11;;;;;;;;;;;;;;;;;;5055199;28;20861;-84
2021/01/15 11:02:38;;;;;;;;;;;;;;;;;;5051506;28;20411;-84
2021/01/15 11:05:05;;;;;;;;;;;;;;;;;;5061756;28;20742;-85
2021/01/15 11:07:41;;;;;;;;;;;;;;;;;;5062048;28;20408;-85
2021/01/15 11:10:07;;;;;;;;;;;;;;;;;;5061140;28;20391;-85
2021/01/15 11:12:33;;;;;;;;;;;;;;;;;;5073920;28;20386;-85
2021/01/15 11:15:00;;;;;;;;;;;;;;;;;;5072674;28;20423;-84
2021/01/15 11:17:26;;;;;;;;;;;;;;;;;;5057584;28;20907;-84
2021/01/15 11:19:53;;;;;;;;;;;;;;;;;;5061640;28;20400;-85
2021/01/15 11:22:20;;;;;;;;;;;;;;;;;;5064834;28;20392;-85
2021/01/15 11:24:46;;;;;;;;;;;;;;;;;;5062794;28;20404;-81
2021/01/15 11:27:13;;;;;;;;;;;;;;;;;;5055000;28;20381;-87
2021/01/15 11:29:39;;;;;;;;;;;;;;;;;;5059924;28;20389;-84
2021/01/15 11:32:06;;;;;;;;;;;;;;;;;;5064196;28;20388;-84
2021/01/15 11:34:32;;;;;;;;;;;;;;;;;;5064980;28;20416;-84
2021/01/15 11:37:00;;;;;;;;;;;;;;;;;;5063921;28;20415;-84
2021/01/15 11:39:27;;;;;;;;;;;;;;;;;;5061583;28;20807;-85
2021/01/15 11:41:54;;;;;;;;;;;;;;;;;;5059699;28;20388;-84
2021/01/15 11:44:20;;;;;;;;;;;;;;;;;;5055958;28;20408;-84
2021/01/15 11:46:49;;;;;;;;;;;;;;;;;;5057548;28;20400;-85
2021/01/15 11:49:15;;;;;;;;;;;;;;;;;;5054925;28;20789;-84
2021/01/15 11:51:41;;;;;;;;;;;;;;;;;;5059109;28;20389;-84
2021/01/15 11:54:12;;;;;;;;;;;;;;;;;;5052742;28;21401;-84
2021/01/15 11:56:38;;;;;;;;;;;;;;;;;;5072621;28;20384;-84
2021/01/15 11:59:05;;;;;;;;;;;;;;;;;;5060700;28;20380;-84
2021/01/15 12:01:31;;;;;;;;;;;;;;;;;;5058567;28;20381;-84
2021/01/15 12:03:58;;;;;;;;;;;;;;;;;;5040463;28;20396;-84
2021/01/15 12:06:24;;;;;;;;;;;;;;;;;;5048113;28;20401;-83
2021/01/15 12:08:50;;;;;;;;;;;;;;;;;;5059688;28;20384;-84
2021/01/15 12:11:17;;;;;;;;;;;;;;;;;;5060869;28;20454;-84
2021/01/15 12:13:43;;;;;;;;;;;;;;;;;;5064889;28;20409;-84
2021/01/15 12:16:11;;;;;;;;;;;;;;;;;;5057854;28;20384;-83
2021/01/15 12:18:37;;;;;;;;;;;;;;;;;;5056984;28;20810;-83
2021/01/15 12:21:04;;;;;;;;;;;;;;;;;;5046406;28;20400;-81
2021/01/15 12:23:30;;;;;;;;;;;;;;;;;;5058050;28;20800;-83
2021/01/15 12:25:56;;;;;;;;;;;;;;;;;;5048515;28;20400;-81
2021/01/15 12:28:23;;;;;;;;;;;;;;;;;;5060216;28;20395;-82
2021/01/15 12:30:49;;;;;;;;;;;;;;;;;;5055897;28;20392;-82
2021/01/15 12:33:16;;;;;;;;;;;;;;;;;;5059281;28;20413;-82
2021/01/15 12:35:42;;;;;;;;;;;;;;;;;;5059129;28;20408;-83
2021/01/15 12:38:08;;;;;;;;;;;;;;;;;;5058791;28;20395;-83
2021/01/15 12:40:35;;;;;;;;;;;;;;;;;;5058503;28;20400;-82
2021/01/15 12:43:01;;;;;;;;;;;;;;;;;;5059284;28;20400;-83
2021/01/15 12:45:27;;;;;;;;;;;;;;;;;;5063383;28;20381;-82
2021/01/15 12:47:54;;;;;;;;;;;;;;;;;;5067434;28;20392;-83
2021/01/15 12:50:20;;;;;;;;;;;;;;;;;;5059245;28;20392;-84
2021/01/15 12:52:47;;;;;;;;;;;;;;;;;;5059186;28;20398;-84
2021/01/15 12:55:13;;;;;;;;;;;;;;;;;;5058855;28;20416;-83
2021/01/15 12:57:39;;;;;;;;;;;;;;;;;;5040177;28;20387;-85
2021/01/15 13:00:06;;;;;;;;;;;;;;;;;;5046147;28;20530;-82
2021/01/15 13:02:32;;;;;;;;;;;;;;;;;;5059687;28;20385;-82
2021/01/15 13:04:59;;;;;;;;;;;;;;;;;;5058709;28;20427;-83
2021/01/15 13:07:25;;;;;;;;;;;;;;;;;;5055702;28;20381;-84
2021/01/15 13:09:51;;;;;;;;;;;;;;;;;;5062718;28;20392;-82
2021/01/15 13:12:18;;;;;;;;;;;;;;;;;;5067577;28;20510;-85
2021/01/15 13:14:44;;;;;;;;;;;;;;;;;;5063585;28;20408;-85
2021/01/15 13:17:10;;;;;;;;;;;;;;;;;;5044896;28;20394;-83
2021/01/15 13:19:37;;;;;;;;;;;;;;;;;;5061152;28;20399;-84
2021/01/15 13:22:03;;;;;;;;;;;;;;;;;;5061953;28;20818;-84
2021/01/15 13:24:30;;;;;;;;;;;;;;;;;;5058094;28;20407;-83
2021/01/15 13:26:56;;;;;;;;;;;;;;;;;;5058796;28;20434;-83
2021/01/15 13:29:23;;;;;;;;;;;;;;;;;;5063182;28;20434;-84
2021/01/15 13:31:49;;;;;;;;;;;;;;;;;;5054453;28;20395;-85
2021/01/15 13:34:15;;;;;;;;;;;;;;;;;;5048011;28;20414;-84
2021/01/15 13:36:42;;;;;;;;;;;;;;;;;;5054565;28;20391;-84
2021/01/15 13:39:08;;;;;;;;;;;;;;;;;;5044341;28;20444;-83
2021/01/15 13:41:35;;;;;;;;;;;;;;;;;;5064869;28;20391;-83
2021/01/15 13:44:01;;;;;;;;;;;;;;;;;;5063538;28;20408;-82
2021/01/15 13:46:28;;;;;;;;;;;;;;;;;;5063318;28;20430;-83
2021/01/15 13:48:54;;;;;;;;;;;;;;;;;;5058582;28;20385;-82
2021/01/15 13:51:21;;;;;;;;;;;;;;;;;;5063144;28;20420;-81
2021/01/15 13:53:52;;;;;;;;;;;;;;;;;;5060176;28;20409;-83
2021/01/15 13:56:19;;;;;;;;;;;;;;;;;;5055881;28;20380;-82
2021/01/15 13:58:45;;;;;;;;;;;;;;;;;;5051236;28;20751;-84
2021/01/15 14:01:12;;;;;;;;;;;;;;;;;;5053514;28;20410;-84
2021/01/15 14:03:38;;;;;;;;;;;;;;;;;;5055294;28;20482;-83
2021/01/15 14:06:08;;;;;;;;;;;;;;;;;;5061434;28;20744;-83
2021/01/15 14:08:35;;;;;;;;;;;;;;;;;;5063972;28;20373;-83
2021/01/15 14:11:02;;;;;;;;;;;;;;;;;;5060855;28;20408;-83
2021/01/15 14:13:28;;;;;;;;;;;;;;;;;;5058135;28;20405;-84
2021/01/15 14:15:54;;;;;;;;;;;;;;;;;;5058364;28;20404;-84
2021/01/15 14:18:21;;;;;;;;;;;;;;;;;;5065577;28;20443;-83
2021/01/15 14:20:47;;;;;;;;;;;;;;;;;;5063783;28;20388;-85
2021/01/15 14:23:13;;;;;;;;;;;;;;;;;;5069507;28;20405;-81
2021/01/15 14:25:40;;;;;;;;;;;;;;;;;;5076155;28;20377;-81
2021/01/15 14:28:07;;;;;;;;;;;;;;;;;;5073251;28;20442;-84
2021/01/15 14:30:33;;;;;;;;;;;;;;;;;;5075606;28;20385;-84
2021/01/15 14:33:00;;;;;;;;;;;;;;;;;;5069260;28;20384;-83
2021/01/15 14:35:26;;;;;;;;;;;;;;;;;;5064835;28;20408;-83
2021/01/15 14:37:52;;;;;;;;;;;;;;;;;;5065882;28;20384;-84
2021/01/15 14:40:19;;;;;;;;;;;;;;;;;;5084043;28;20389;-83
2021/01/15 14:42:45;;;;;;;;;;;;;;;;;;5070443;28;20387;-84
2021/01/15 14:45:12;;;;;;;;;;;;;;;;;;5058134;28;20387;-84
2021/01/15 14:47:38;;;;;;;;;;;;;;;;;;5068904;28;20417;-84
2021/01/15 14:50:04;;;;;;;;;;;;;;;;;;5062450;28;20388;-84
2021/01/15 14:52:31;;;;;;;;;;;;;;;;;;5061367;28;20381;-84
2021/01/15 14:54:57;;;;;;;;;;;;;;;;;;5060434;28;20418;-86
2021/01/15 14:57:23;;;;;;;;;;;;;;;;;;5058552;28;20381;-86
2021/01/15 14:59:50;;;;;;;;;;;;;;;;;;5060339;28;20446;-86
2021/01/15 15:02:16;;;;;;;;;;;;;;;;;;5058548;28;20388;-84
2021/01/15 15:04:43;;;;;;;;;;;;;;;;;;5058968;28;20408;-84
2021/01/15 15:07:09;;;;;;;;;;;;;;;;;;5058236;28;20920;-84
2021/01/15 15:09:35;;;;;;;;;;;;;;;;;;5058978;28;20389;-84
2021/01/15 15:12:02;;;;;;;;;;;;;;;;;;5059840;28;20380;-83
2021/01/15 15:14:28;;;;;;;;;;;;;;;;;;5054103;28;20418;-83
2021/01/15 15:16:55;;;;;;;;;;;;;;;;;;5049270;28;20384;-83
2021/01/15 15:19:21;;;;;;;;;;;;;;;;;;5061154;28;20385;-84
2021/01/15 15:21:47;;;;;;;;;;;;;;;;;;5059044;28;20734;-84
2021/01/15 15:24:14;;;;;;;;;;;;;;;;;;5041796;28;20821;-84
2021/01/15 15:26:40;;;;;;;;;;;;;;;;;;5061262;28;20381;-85
2021/01/15 15:29:08;;;;;;;;;;;;;;;;;;5059812;28;20377;-84
2021/01/15 15:31:35;;;;;;;;;;;;;;;;;;5058234;28;20411;-85
2021/01/15 15:34:01;;;;;;;;;;;;;;;;;;5059004;28;20474;-85
2021/01/15 15:36:28;;;;;;;;;;;;;;;;;;5041906;28;20399;-86
2021/01/15 15:38:54;;;;;;;;;;;;;;;;;;5055658;28;20381;-85
2021/01/15 15:41:21;;;;;;;;;;;;;;;;;;5059015;28;20385;-85
2021/01/15 15:43:47;;;;;;;;;;;;;;;;;;5061827;28;20496;-84
2021/01/15 15:46:14;;;;;;;;;;;;;;;;;;5063405;28;20471;-85
2021/01/15 15:48:40;;;;;;;;;;;;;;;;;;5054780;28;20411;-85
2021/01/15 15:51:07;;;;;;;;;;;;;;;;;;5055661;28;20511;-85
2021/01/15 15:53:33;;;;;;;;;;;;;;;;;;5061710;28;20459;-85
2021/01/15 15:56:00;;;;;;;;;;;;;;;;;;5058714;28;20432;-86
2021/01/15 15:58:26;;;;;;;;;;;;;;;;;;5057259;28;20385;-86
2021/01/15 16:00:53;;;;;;;;;;;;;;;;;;5058242;28;20387;-87
2021/01/15 16:03:19;;;;;;;;;;;;;;;;;;5057704;28;20404;-86
2021/01/15 16:05:45;;;;;;;;;;;;;;;;;;5059114;28;20447;-87
2021/01/15 16:08:12;;;;;;;;;;;;;;;;;;5058996;28;20931;-86
2021/01/15 16:10:38;;;;;;;;;;;;;;;;;;5057428;28;20437;-89
2021/01/15 16:13:05;;;;;;;;;;;;;;;;;;5058662;28;20380;-87
2021/01/15 16:15:31;;;;;;;;;;;;;;;;;;5057663;28;20458;-87
2021/01/15 16:17:58;;;;;;;;;;;;;;;;;;5057793;28;20482;-85
2021/01/15 16:20:24;;;;;;;;;;;;;;;;;;5058728;28;20385;-87
2021/01/15 16:22:50;;;;;;;;;;;;;;;;;;5048357;28;20388;-86
2021/01/15 16:25:18;;;;;;;;;;;;;;;;;;5065351;28;20384;-84
2021/01/15 16:27:44;;;;;;;;;;;;;;;;;;5057041;28;20396;-84
2021/01/15 16:30:11;;;;;;;;;;;;;;;;;;5058036;28;20391;-84
2021/01/15 16:32:37;;;;;;;;;;;;;;;;;;5071493;28;20384;-84
2021/01/15 16:35:04;;;;;;;;;;;;;;;;;;5077917;28;20780;-85
2021/01/15 16:37:32;;;;;;;;;;;;;;;;;;5064856;28;20413;-85
2021/01/15 16:39:58;;;;;;;;;;;;;;;;;;5059107;28;20483;-86
2021/01/15 16:42:25;;;;;;;;;;;;;;;;;;5069078;28;20386;-84
2021/01/15 16:44:51;;;;;;;;;;;;;;;;;;5064027;28;20483;-83
2021/01/15 16:47:18;;;;;;;;;;;;;;;;;;5057983;28;20420;-84
2021/01/15 16:49:44;;;;;;;;;;;;;;;;;;5057831;28;20388;-84
2021/01/15 16:52:11;;;;;;;;;;;;;;;;;;5067429;28;20714;-83
2021/01/15 16:54:38;;;;;;;;;;;;;;;;;;5073420;28;20404;-84
2021/01/15 16:57:04;;;;;;;;;;;;;;;;;;5060568;28;20383;-87
2021/01/15 16:59:30;;;;;;;;;;;;;;;;;;5057430;28;20395;-84
2021/01/15 17:01:57;;;;;;;;;;;;;;;;;;5043889;28;20385;-86
2021/01/15 17:04:23;;;;;;;;;;;;;;;;;;5058081;28;20404;-86
2021/01/15 17:06:50;;;;;;;;;;;;;;;;;;5056843;28;20380;-84
2021/01/15 17:09:16;;;;;;;;;;;;;;;;;;5056233;28;20419;-84
2021/01/15 17:11:42;;;;;;;;;;;;;;;;;;5055294;28;20383;-83